createdAt,value
2022-10-05T00:00:51.266Z,49.02
2022-10-05T00:01:53.870Z,48.77
2022-10-05T00:02:56.048Z,48.62
2022-10-05T00:04:06.520Z,48.75
2022-10-05T00:05:20.398Z,48.58
2022-10-05T00:06:22.437Z,48.77
2022-10-05T00:07:25.124Z,48.75
2022-10-05T00:08:31.928Z,49.12
2022-10-05T00:09:34.298Z,48.68
2022-10-05T00:10:36.641Z,49.31
2022-10-05T00:11:38.356Z,49.11
2022-10-05T00:12:40.056Z,49.26
2022-10-05T00:13:42.484Z,49.44
2022-10-05T00:14:46.246Z,49.20
2022-10-05T00:15:49.071Z,49.38
2022-10-05T00:16:51.236Z,49.13
2022-10-05T00:17:53.180Z,49.09
2022-10-05T00:18:54.804Z,49.43
2022-10-05T00:19:56.854Z,49.39
2022-10-05T00:20:58.522Z,49.61
2022-10-05T00:22:12.124Z,50.01
2022-10-05T00:23:24.940Z,49.39
2022-10-05T00:24:26.623Z,49.99
2022-10-05T00:25:28.658Z,50.21
2022-10-05T00:26:33.588Z,49.91
2022-10-05T00:27:38.140Z,49.77
2022-10-05T00:28:41.237Z,49.63
2022-10-05T00:29:42.961Z,49.97
2022-10-05T00:30:45.021Z,49.76
2022-10-05T00:31:46.894Z,50.03
2022-10-05T00:32:49.213Z,49.90
2022-10-05T00:33:51.054Z,50.06
2022-10-05T00:34:52.796Z,49.54
2022-10-05T00:35:55.639Z,49.82
2022-10-05T00:36:58.581Z,49.64
2022-10-05T00:38:00.286Z,49.49
2022-10-05T00:39:02.354Z,49.47
2022-10-05T00:40:39.514Z,49.58
2022-10-05T00:41:47.081Z,49.36
2022-10-05T00:42:48.659Z,49.54
2022-10-05T00:44:21.230Z,49.74
2022-10-05T00:45:29.006Z,49.42
2022-10-05T00:46:59.934Z,50.34
2022-10-05T00:48:13.294Z,50.02
2022-10-05T00:49:39.638Z,50.13
2022-10-05T00:50:59.550Z,49.81
2022-10-05T00:52:24.500Z,49.43
2022-10-05T00:53:26.105Z,49.96
2022-10-05T00:54:46.548Z,49.97
2022-10-05T00:56:35.734Z,50.13
2022-10-05T00:58:06.901Z,50.76
2022-10-05T00:59:37.211Z,50.79
2022-10-05T01:01:04.917Z,50.95
2022-10-05T01:02:23.718Z,51.38
2022-10-05T01:03:39.419Z,50.87
2022-10-05T01:04:47.430Z,51.28
2022-10-05T01:06:22.688Z,51.24
2022-10-05T01:07:30.304Z,51.19
2022-10-05T01:08:51.526Z,51.28
2022-10-05T01:10:16.068Z,51.14
2022-10-05T01:11:17.684Z,50.99
2022-10-05T01:12:31.432Z,51.28
2022-10-05T01:14:11.933Z,50.90
2022-10-05T01:15:21.990Z,50.80
2022-10-05T01:17:05.091Z,50.74
2022-10-05T01:18:16.497Z,50.72
2022-10-05T01:19:50.084Z,50.37
2022-10-05T01:20:57.633Z,50.74
2022-10-05T01:22:34.476Z,50.79
2022-10-05T01:23:51.484Z,51.17
2022-10-05T01:25:18.101Z,51.93
2022-10-05T01:26:38.256Z,51.50
2022-10-05T01:27:48.284Z,51.81
2022-10-05T01:28:53.064Z,51.51
2022-10-05T01:30:10.931Z,51.90
2022-10-05T01:31:25.860Z,52.50
2022-10-05T01:33:02.744Z,52.44
2022-10-05T01:34:17.114Z,52.96
2022-10-05T01:35:24.601Z,53.20
2022-10-05T01:36:37.608Z,52.66
2022-10-05T01:37:48.432Z,53.01
2022-10-05T01:38:55.855Z,52.68
2022-10-05T01:40:21.973Z,52.90
2022-10-05T01:41:51.383Z,53.45
2022-10-05T01:43:20.708Z,53.56
2022-10-05T01:44:46.259Z,53.22
2022-10-05T01:46:06.695Z,53.43
2022-10-05T01:47:21.753Z,53.25
2022-10-05T01:48:43.298Z,53.46
2022-10-05T01:50:01.882Z,53.49
2022-10-05T01:51:12.965Z,53.61
2022-10-05T01:52:56.576Z,53.35
2022-10-05T01:54:35.423Z,53.83
2022-10-05T01:56:03.842Z,53.28
2022-10-05T01:57:35.837Z,53.82
2022-10-05T01:58:50.822Z,54.02
2022-10-05T02:00:01.615Z,54.24
2022-10-05T02:01:24.356Z,54.72
2022-10-05T02:02:28.780Z,54.30
2022-10-05T02:03:37.307Z,54.17
2022-10-05T02:05:04.676Z,54.09
2022-10-05T02:06:21.548Z,54.75
2022-10-05T02:07:29.616Z,54.39
2022-10-05T02:08:38.799Z,54.54
2022-10-05T02:09:58.663Z,55.05
2022-10-05T02:11:06.308Z,55.42
2022-10-05T02:12:16.158Z,55.32
2022-10-05T02:13:48.104Z,55.40
2022-10-05T02:14:54.772Z,56.12
2022-10-05T02:16:16.996Z,55.26
2022-10-05T02:17:28.330Z,55.88
2022-10-05T02:18:35.978Z,56.29
2022-10-05T02:19:37.587Z,56.57
2022-10-05T02:20:42.442Z,56.84
2022-10-05T02:21:49.102Z,56.45
2022-10-05T02:22:54.842Z,56.26
2022-10-05T02:24:02.884Z,56.25
2022-10-05T02:25:15.458Z,56.21
2022-10-05T02:26:19.259Z,57.72
2022-10-05T02:27:28.126Z,57.48
2022-10-05T02:28:38.358Z,56.93
2022-10-05T02:29:45.741Z,57.60
2022-10-05T02:30:53.140Z,57.94
2022-10-05T02:32:03.654Z,57.93
2022-10-05T02:33:13.998Z,57.95
2022-10-05T02:34:24.810Z,58.03
2022-10-05T02:35:26.634Z,58.63
2022-10-05T02:36:35.703Z,58.60
2022-10-05T02:37:54.472Z,58.20
2022-10-05T02:39:11.327Z,58.50
2022-10-05T02:40:18.836Z,58.99
2022-10-05T02:41:28.906Z,58.48
2022-10-05T02:42:48.334Z,58.97
2022-10-05T02:44:16.879Z,58.64
2022-10-05T02:45:49.169Z,58.62
2022-10-05T02:47:03.573Z,58.70
2022-10-05T02:48:11.196Z,58.33
2022-10-05T02:49:34.342Z,58.82
2022-10-05T02:50:49.446Z,59.27
2022-10-05T02:52:17.161Z,58.57
2022-10-05T02:53:33.754Z,58.38
2022-10-05T02:54:50.176Z,58.32
2022-10-05T02:55:57.788Z,58.84
2022-10-05T02:57:19.336Z,58.59
2022-10-05T02:58:25.918Z,58.15
2022-10-05T02:59:38.869Z,58.10
2022-10-05T03:00:48.091Z,58.43
2022-10-05T03:01:55.823Z,57.65
2022-10-05T03:03:06.466Z,56.97
2022-10-05T03:04:28.646Z,57.38
2022-10-05T03:05:43.581Z,57.10
2022-10-05T03:06:58.856Z,56.98
2022-10-05T03:08:22.391Z,56.87
2022-10-05T03:09:32.030Z,56.29
2022-10-05T03:10:33.674Z,56.49
2022-10-05T03:11:38.217Z,56.04
2022-10-05T03:12:50.018Z,56.74
2022-10-05T03:14:12.064Z,56.25
2022-10-05T03:15:58.926Z,56.34
2022-10-05T03:17:22.962Z,55.65
2022-10-05T03:18:55.799Z,55.31
2022-10-05T03:20:22.751Z,55.38
2022-10-05T03:21:42.112Z,55.79
2022-10-05T03:23:04.716Z,55.39
2022-10-05T03:24:24.709Z,55.90
2022-10-05T03:25:38.614Z,55.68
2022-10-05T03:26:43.400Z,55.74
2022-10-05T03:27:57.237Z,55.45
2022-10-05T03:29:10.884Z,55.94
2022-10-05T03:30:23.912Z,55.78
2022-10-05T03:31:56.443Z,55.61
2022-10-05T03:33:13.208Z,55.59
2022-10-05T03:34:30.181Z,55.60
2022-10-05T03:35:58.622Z,55.17
2022-10-05T03:37:19.005Z,55.21
2022-10-05T03:39:18.101Z,55.01
2022-10-05T03:40:34.721Z,55.38
2022-10-05T03:42:05.906Z,54.92
2022-10-05T03:43:13.380Z,54.44
2022-10-05T03:44:32.967Z,54.17
2022-10-05T03:46:02.501Z,54.46
2022-10-05T03:47:33.215Z,54.45
2022-10-05T03:48:50.200Z,54.45
2022-10-05T03:50:19.531Z,54.29
2022-10-05T03:51:32.167Z,53.56
2022-10-05T03:52:45.997Z,54.09
2022-10-05T03:53:54.717Z,53.21
2022-10-05T03:55:05.686Z,54.33
2022-10-05T03:56:17.061Z,53.77
2022-10-05T03:57:23.423Z,53.30
2022-10-05T03:58:36.025Z,53.63
2022-10-05T04:00:01.065Z,53.97
2022-10-05T04:01:08.937Z,53.38
2022-10-05T04:02:24.009Z,53.93
2022-10-05T04:03:55.970Z,53.59
2022-10-05T04:05:16.716Z,53.51
2022-10-05T04:06:24.753Z,53.34
2022-10-05T04:07:38.906Z,53.88
2022-10-05T04:09:00.531Z,54.16
2022-10-05T04:10:07.684Z,53.55
2022-10-05T04:11:31.900Z,53.88
2022-10-05T04:12:38.937Z,53.60
2022-10-05T04:13:56.256Z,53.57
2022-10-05T04:15:03.158Z,53.29
2022-10-05T04:16:17.276Z,54.03
2022-10-05T04:17:35.771Z,53.56
2022-10-05T04:18:43.952Z,54.06
2022-10-05T04:19:57.185Z,53.53
2022-10-05T04:21:11.848Z,53.73
2022-10-05T04:22:22.841Z,53.21
2022-10-05T04:23:39.204Z,54.21
2022-10-05T04:24:49.335Z,53.60
2022-10-05T04:25:56.988Z,53.97
2022-10-05T04:27:11.601Z,53.93
2022-10-05T04:28:46.258Z,54.15
2022-10-05T04:29:57.208Z,54.27
2022-10-05T04:31:04.031Z,54.29
2022-10-05T04:32:08.451Z,54.48
2022-10-05T04:33:16.128Z,54.73
2022-10-05T04:34:41.011Z,54.27
2022-10-05T04:36:05.080Z,54.47
2022-10-05T04:37:16.013Z,54.99
2022-10-05T04:38:48.885Z,54.86
2022-10-05T04:40:00.793Z,54.76
2022-10-05T04:41:34.699Z,54.97
2022-10-05T04:42:47.560Z,54.70
2022-10-05T04:43:58.239Z,55.27
2022-10-05T04:45:28.973Z,55.28
2022-10-05T04:47:08.041Z,54.95
2022-10-05T04:48:59.032Z,55.92
2022-10-05T04:50:24.546Z,55.30
2022-10-05T04:51:52.252Z,55.07
2022-10-05T04:53:09.369Z,55.11
2022-10-05T04:54:44.825Z,55.87
2022-10-05T04:56:05.466Z,54.83
2022-10-05T04:57:13.832Z,55.35
2022-10-05T04:58:21.556Z,54.84
2022-10-05T04:59:26.174Z,55.07
2022-10-05T05:00:35.507Z,55.05
2022-10-05T05:02:18.916Z,54.60
2022-10-05T05:03:39.449Z,55.19
2022-10-05T05:04:52.294Z,54.89
2022-10-05T05:06:18.037Z,54.74
2022-10-05T05:07:29.957Z,54.69
2022-10-05T05:08:46.251Z,54.95
2022-10-05T05:10:06.512Z,56.12
2022-10-05T05:11:24.652Z,59.01
2022-10-05T05:12:46.592Z,60.10
2022-10-05T05:14:26.968Z,58.06
2022-10-05T05:15:42.833Z,56.04
2022-10-05T05:16:49.884Z,55.81
2022-10-05T05:18:33.665Z,53.43
2022-10-05T05:19:38.105Z,52.10
2022-10-05T05:20:45.894Z,50.60
2022-10-05T05:22:06.191Z,49.70
2022-10-05T05:23:16.763Z,49.29
2022-10-05T05:24:30.315Z,47.25
2022-10-05T05:25:44.954Z,46.67
2022-10-05T05:26:58.594Z,45.49
2022-10-05T05:28:12.504Z,45.65
2022-10-05T05:29:14.244Z,45.66
2022-10-05T05:30:35.895Z,45.06
2022-10-05T05:31:53.453Z,44.48
2022-10-05T05:33:07.392Z,44.29
2022-10-05T05:34:38.901Z,43.80
2022-10-05T05:35:59.174Z,43.62
2022-10-05T05:37:28.281Z,44.16
2022-10-05T05:38:35.773Z,44.13
2022-10-05T05:40:17.145Z,44.37
2022-10-05T05:41:32.991Z,44.07
2022-10-05T05:42:58.290Z,44.33
2022-10-05T05:44:26.219Z,44.56
2022-10-05T05:45:44.283Z,44.80
2022-10-05T05:47:03.914Z,44.83
2022-10-05T05:48:17.034Z,44.70
2022-10-05T05:49:25.123Z,44.48
2022-10-05T05:51:05.558Z,45.04
2022-10-05T05:52:24.464Z,44.95
2022-10-05T05:53:39.541Z,45.01
2022-10-05T05:54:54.945Z,45.28
2022-10-05T05:56:05.565Z,44.92
2022-10-05T05:57:11.907Z,45.20
2022-10-05T05:58:27.568Z,45.18
2022-10-05T05:59:43.784Z,45.57
2022-10-05T06:00:58.551Z,45.29
2022-10-05T06:02:09.501Z,45.33
2022-10-05T06:03:16.709Z,44.89
2022-10-05T06:04:37.936Z,44.96
2022-10-05T06:05:49.693Z,45.15
2022-10-05T06:06:54.139Z,45.35
2022-10-05T06:08:03.471Z,45.17
2022-10-05T06:09:30.636Z,45.88
2022-10-05T06:10:52.048Z,46.05
2022-10-05T06:11:55.934Z,45.60
2022-10-05T06:13:03.922Z,45.06
2022-10-05T06:14:29.795Z,46.31
2022-10-05T06:15:43.932Z,46.02
2022-10-05T06:16:54.404Z,45.91
2022-10-05T06:18:01.220Z,46.28
2022-10-05T06:19:10.520Z,46.02
2022-10-05T06:20:27.545Z,46.25
2022-10-05T06:21:37.511Z,46.59
2022-10-05T06:22:43.611Z,46.26
2022-10-05T06:23:54.507Z,45.82
2022-10-05T06:25:15.867Z,45.34
2022-10-05T06:26:48.955Z,46.10
2022-10-05T06:28:16.358Z,45.57
2022-10-05T06:29:23.139Z,45.87
2022-10-05T06:30:26.633Z,45.35
2022-10-05T06:31:58.884Z,45.26
2022-10-05T06:33:25.026Z,45.70
2022-10-05T06:34:45.160Z,46.63
2022-10-05T06:36:23.725Z,44.97
2022-10-05T06:37:33.135Z,45.08
2022-10-05T06:39:07.440Z,45.26
2022-10-05T06:40:22.060Z,42.00
2022-10-05T06:41:45.210Z,41.18
2022-10-05T06:43:12.946Z,40.46
2022-10-05T06:44:22.573Z,40.62
2022-10-05T06:45:35.141Z,39.32
2022-10-05T06:46:50.217Z,38.94
2022-10-05T06:48:04.291Z,41.87
2022-10-05T06:49:31.408Z,41.09
2022-10-05T06:50:42.611Z,37.39
2022-10-05T06:51:59.589Z,36.69
2022-10-05T06:53:01.299Z,35.85
2022-10-05T06:54:27.436Z,36.17
2022-10-05T06:55:34.770Z,35.56
2022-10-05T06:56:47.873Z,35.47
2022-10-05T06:58:27.959Z,34.52
2022-10-05T06:59:35.660Z,34.01
2022-10-05T07:00:44.153Z,33.59
2022-10-05T07:01:51.031Z,33.46
2022-10-05T07:03:20.561Z,32.35
2022-10-05T07:04:40.887Z,32.84
2022-10-05T07:06:12.085Z,31.86
2022-10-05T07:07:32.704Z,31.42
2022-10-05T07:08:34.292Z,30.36
2022-10-05T07:10:06.755Z,29.74
2022-10-05T07:11:41.486Z,29.23
2022-10-05T07:12:46.106Z,29.62
2022-10-05T07:13:51.374Z,28.39
2022-10-05T07:14:58.700Z,29.48
2022-10-05T07:16:58.959Z,28.14
2022-10-05T07:18:09.321Z,27.63
2022-10-05T07:19:19.437Z,28.08
2022-10-05T07:20:24.002Z,28.17
2022-10-05T07:21:35.756Z,26.93
2022-10-05T07:22:50.651Z,26.38
2022-10-05T07:24:24.429Z,26.05
2022-10-05T07:25:37.125Z,26.39
2022-10-05T07:26:47.690Z,26.43
2022-10-05T07:27:58.264Z,26.07
2022-10-05T07:29:33.720Z,25.78
2022-10-05T07:30:47.780Z,26.59
2022-10-05T07:32:14.254Z,27.20
2022-10-05T07:33:29.065Z,26.05
2022-10-05T07:34:33.618Z,26.18
2022-10-05T07:36:21.992Z,26.31
2022-10-05T07:38:00.348Z,26.84
2022-10-05T07:39:09.812Z,25.20
2022-10-05T07:40:29.871Z,25.52
2022-10-05T07:41:44.202Z,24.68
2022-10-05T07:43:15.289Z,25.39
2022-10-05T07:44:32.190Z,24.33
2022-10-05T07:45:39.731Z,24.68
2022-10-05T07:46:44.980Z,24.91
2022-10-05T07:48:14.031Z,24.85
2022-10-05T07:49:18.561Z,25.32
2022-10-05T07:50:34.001Z,23.98
2022-10-05T07:51:45.436Z,24.20
2022-10-05T07:52:56.616Z,23.28
2022-10-05T07:53:58.218Z,22.88
2022-10-05T07:55:15.904Z,25.22
2022-10-05T07:56:29.599Z,23.60
2022-10-05T07:57:44.984Z,23.51
2022-10-05T07:59:01.865Z,23.06
2022-10-05T08:00:20.448Z,23.12
2022-10-05T08:01:27.032Z,22.21
2022-10-05T08:02:52.552Z,23.85
2022-10-05T08:03:54.287Z,21.73
2022-10-05T08:05:04.084Z,22.04
2022-10-05T08:06:11.500Z,22.00
2022-10-05T08:07:17.474Z,22.28
2022-10-05T08:08:42.482Z,22.30
2022-10-05T08:10:23.769Z,22.75
2022-10-05T08:11:58.747Z,23.12
2022-10-05T08:13:12.331Z,22.13
2022-10-05T08:14:24.547Z,22.29
2022-10-05T08:15:33.153Z,22.89
2022-10-05T08:16:38.450Z,21.90
2022-10-05T08:17:56.937Z,22.01
2022-10-05T08:19:21.447Z,21.55
2022-10-05T08:20:28.578Z,20.79
2022-10-05T08:21:40.336Z,21.79
2022-10-05T08:22:47.414Z,21.03
2022-10-05T08:24:00.962Z,21.62
2022-10-05T08:25:06.081Z,21.56
2022-10-05T08:26:13.580Z,22.64
2022-10-05T08:27:44.318Z,20.89
2022-10-05T08:28:59.390Z,20.39
2022-10-05T08:30:11.813Z,20.69
2022-10-05T08:31:29.905Z,20.77
2022-10-05T08:32:55.214Z,21.68
2022-10-05T08:34:27.802Z,20.68
2022-10-05T08:35:38.045Z,22.06
2022-10-05T08:36:39.696Z,20.30
2022-10-05T08:37:43.283Z,20.24
2022-10-05T08:38:45.720Z,20.67
2022-10-05T08:40:14.735Z,19.84
2022-10-05T08:41:29.564Z,21.49
2022-10-05T08:43:05.535Z,20.58
2022-10-05T08:44:44.714Z,20.10
2022-10-05T08:45:46.830Z,19.59
2022-10-05T08:47:06.719Z,20.27
2022-10-05T08:48:56.390Z,19.98
2022-10-05T08:50:13.339Z,20.28
2022-10-05T08:51:52.438Z,20.28
2022-10-05T08:52:56.897Z,19.67
2022-10-05T08:54:07.624Z,19.04
2022-10-05T08:55:27.695Z,19.39
2022-10-05T08:56:29.301Z,20.22
2022-10-05T08:57:46.730Z,19.38
2022-10-05T08:59:00.764Z,20.14
2022-10-05T09:00:10.488Z,20.41
2022-10-05T09:01:30.926Z,20.13
2022-10-05T09:02:50.957Z,19.80
2022-10-05T09:04:11.634Z,19.14
2022-10-05T09:05:29.018Z,19.26
2022-10-05T09:06:45.644Z,19.32
2022-10-05T09:08:08.750Z,19.83
2022-10-05T09:09:41.019Z,19.04
2022-10-05T09:10:48.624Z,18.89
2022-10-05T09:12:21.311Z,18.35
2022-10-05T09:13:25.586Z,20.05
2022-10-05T09:14:32.807Z,19.13
2022-10-05T09:15:56.106Z,18.80
2022-10-05T09:17:00.659Z,18.37
2022-10-05T09:18:56.234Z,19.37
2022-10-05T09:20:15.196Z,18.96
2022-10-05T09:21:40.835Z,19.50
2022-10-05T09:23:10.343Z,18.39
2022-10-05T09:24:15.014Z,18.84
2022-10-05T09:26:07.334Z,17.60
2022-10-05T09:27:12.991Z,19.41
2022-10-05T09:28:25.735Z,18.85
2022-10-05T09:30:01.426Z,17.49
2022-10-05T09:31:22.533Z,17.79
2022-10-05T09:32:33.089Z,17.64
2022-10-05T09:33:56.113Z,18.36
2022-10-05T09:35:18.191Z,17.45
2022-10-05T09:36:37.461Z,18.71
2022-10-05T09:37:57.921Z,19.01
2022-10-05T09:39:37.176Z,18.58
2022-10-05T09:41:16.135Z,18.27
2022-10-05T09:42:24.370Z,17.14
2022-10-05T09:43:51.532Z,17.79
2022-10-05T09:45:08.314Z,17.33
2022-10-05T09:46:28.711Z,17.44
2022-10-05T09:47:47.945Z,17.51
2022-10-05T09:49:15.863Z,17.10
2022-10-05T09:50:32.605Z,17.98
2022-10-05T09:51:50.156Z,17.33
2022-10-05T09:53:13.334Z,17.45
2022-10-05T09:54:53.327Z,17.29
2022-10-05T09:56:26.020Z,17.18
2022-10-05T09:57:36.508Z,18.10
2022-10-05T09:59:07.621Z,17.69
2022-10-05T10:00:09.696Z,17.50
2022-10-05T10:01:33.521Z,17.66
2022-10-05T10:03:04.946Z,17.27
2022-10-05T10:04:31.244Z,17.05
2022-10-05T10:06:05.554Z,17.45
2022-10-05T10:07:40.892Z,17.29
2022-10-05T10:08:52.256Z,17.29
2022-10-05T10:10:15.605Z,18.08
2022-10-05T10:11:29.167Z,16.42
2022-10-05T10:13:05.013Z,17.72
2022-10-05T10:14:45.281Z,17.44
2022-10-05T10:16:13.038Z,17.72
2022-10-05T10:17:33.714Z,17.33
2022-10-05T10:18:54.103Z,18.15
2022-10-05T10:20:06.530Z,17.29
2022-10-05T10:21:30.218Z,17.81
2022-10-05T10:23:05.557Z,17.43
2022-10-05T10:24:44.484Z,17.07
2022-10-05T10:26:11.887Z,17.26
2022-10-05T10:27:27.566Z,17.31
2022-10-05T10:28:32.348Z,17.26
2022-10-05T10:29:41.329Z,16.84
2022-10-05T10:31:01.266Z,17.51
2022-10-05T10:32:23.208Z,16.90
2022-10-05T10:33:49.857Z,16.60
2022-10-05T10:34:54.261Z,17.07
2022-10-05T10:36:27.331Z,16.96
2022-10-05T10:37:53.184Z,16.93
2022-10-05T10:39:17.843Z,18.13
2022-10-05T10:40:56.131Z,17.54
2022-10-05T10:42:35.217Z,17.64
2022-10-05T10:43:53.300Z,17.67
2022-10-05T10:45:23.083Z,16.22
2022-10-05T10:46:49.222Z,16.77
2022-10-05T10:48:10.990Z,17.67
2022-10-05T10:49:34.272Z,17.22
2022-10-05T10:50:36.187Z,17.83
2022-10-05T10:51:53.067Z,17.69
2022-10-05T10:53:04.765Z,17.73
2022-10-05T10:54:24.509Z,17.90
2022-10-05T10:55:57.230Z,18.00
2022-10-05T10:57:05.603Z,17.77
2022-10-05T10:58:08.039Z,17.80
2022-10-05T10:59:17.372Z,17.42
2022-10-05T11:00:30.742Z,17.39
2022-10-05T11:02:14.967Z,18.08
2022-10-05T11:03:35.256Z,18.15
2022-10-05T11:05:01.785Z,18.37
2022-10-05T11:06:21.542Z,18.69
2022-10-05T11:07:50.423Z,18.44
2022-10-05T11:09:11.394Z,18.70
2022-10-05T11:10:34.425Z,18.07
2022-10-05T11:11:52.030Z,19.05
2022-10-05T11:13:15.619Z,18.78
2022-10-05T11:14:29.893Z,19.92
2022-10-05T11:16:01.167Z,18.82
2022-10-05T11:17:21.225Z,19.52
2022-10-05T11:18:50.662Z,20.16
2022-10-05T11:20:15.204Z,19.45
2022-10-05T11:21:26.271Z,19.95
2022-10-05T11:22:41.116Z,19.97
2022-10-05T11:24:06.904Z,19.99
2022-10-05T11:25:42.898Z,20.55
2022-10-05T11:26:59.882Z,20.74
2022-10-05T11:28:25.504Z,20.78
2022-10-05T11:30:14.018Z,20.33
2022-10-05T11:31:53.451Z,20.82
2022-10-05T11:33:32.958Z,21.45
2022-10-05T11:34:59.007Z,21.87
2022-10-05T11:36:08.947Z,22.05
2022-10-05T11:37:38.251Z,20.97
2022-10-05T11:39:07.111Z,22.99
2022-10-05T11:40:33.517Z,21.98
2022-10-05T11:42:02.737Z,21.84
2022-10-05T11:43:42.373Z,23.71
2022-10-05T11:45:24.561Z,23.39
2022-10-05T11:46:57.907Z,21.74
2022-10-05T11:48:02.313Z,23.14
2022-10-05T11:49:29.252Z,23.96
2022-10-05T11:50:39.880Z,24.58
2022-10-05T11:51:51.816Z,24.24
2022-10-05T11:52:59.858Z,24.52
2022-10-05T11:54:58.609Z,24.29
2022-10-05T11:56:34.818Z,24.14
2022-10-05T11:57:43.043Z,24.84
2022-10-05T11:58:58.687Z,23.73
2022-10-05T12:00:13.579Z,25.03
2022-10-05T12:01:20.007Z,23.95
2022-10-05T12:02:39.963Z,24.32
2022-10-05T12:03:53.461Z,24.26
2022-10-05T12:05:03.677Z,23.90
2022-10-05T12:06:40.856Z,23.86
2022-10-05T12:07:51.426Z,25.29
2022-10-05T12:09:05.329Z,24.22
2022-10-05T12:10:44.912Z,24.67
2022-10-05T12:12:10.873Z,25.24
2022-10-05T12:13:15.242Z,25.26
2022-10-05T12:14:41.312Z,24.85
2022-10-05T12:15:48.336Z,26.27
2022-10-05T12:16:59.146Z,25.45
2022-10-05T12:18:13.687Z,27.19
2022-10-05T12:19:26.217Z,26.04
2022-10-05T12:20:53.479Z,25.92
2022-10-05T12:22:04.163Z,26.08
2022-10-05T12:23:16.788Z,26.45
2022-10-05T12:24:26.776Z,26.58
2022-10-05T12:25:47.437Z,26.19
2022-10-05T12:27:04.745Z,25.94
2022-10-05T12:28:15.808Z,25.70
2022-10-05T12:29:32.358Z,25.94
2022-10-05T12:30:55.706Z,25.77
2022-10-05T12:32:21.768Z,26.71
2022-10-05T12:33:35.005Z,26.47
2022-10-05T12:35:03.475Z,26.52
2022-10-05T12:36:14.874Z,26.26
2022-10-05T12:37:39.821Z,26.95
2022-10-05T12:38:51.991Z,26.22
2022-10-05T12:40:02.306Z,26.24
2022-10-05T12:41:45.490Z,26.76
2022-10-05T12:43:00.853Z,27.31
2022-10-05T12:44:37.699Z,28.09
2022-10-05T12:45:46.253Z,27.33
2022-10-05T12:47:18.275Z,27.52
2022-10-05T12:48:37.925Z,26.89
2022-10-05T12:50:01.351Z,26.89
2022-10-05T12:51:27.654Z,26.73
2022-10-05T12:53:03.069Z,26.93
2022-10-05T12:55:26.181Z,26.66
2022-10-05T12:57:06.067Z,26.63
2022-10-05T12:58:38.811Z,27.41
2022-10-05T13:00:22.744Z,27.57
2022-10-05T13:02:49.316Z,26.48
2022-10-05T13:04:09.056Z,26.89
2022-10-05T13:05:10.660Z,25.97
2022-10-05T13:06:35.423Z,26.29
2022-10-05T13:07:49.959Z,27.87
2022-10-05T13:08:56.032Z,27.34
2022-10-05T13:10:17.282Z,27.64
2022-10-05T13:11:28.459Z,27.30
2022-10-05T13:12:39.702Z,28.34
2022-10-05T13:13:57.792Z,27.56
2022-10-05T13:15:08.099Z,27.00
2022-10-05T13:16:28.415Z,28.18
2022-10-05T13:18:07.360Z,28.27
2022-10-05T13:19:31.994Z,28.79
2022-10-05T13:20:59.456Z,29.00
2022-10-05T13:22:37.800Z,27.68
2022-10-05T13:23:48.272Z,27.41
2022-10-05T13:25:19.065Z,28.10
2022-10-05T13:26:44.486Z,27.06
2022-10-05T13:27:53.588Z,27.59
2022-10-05T13:29:13.322Z,27.10
2022-10-05T13:30:20.731Z,28.50
2022-10-05T13:31:27.511Z,27.80
2022-10-05T13:32:39.172Z,27.34
2022-10-05T13:33:55.759Z,27.73
2022-10-05T13:35:19.076Z,27.59
2022-10-05T13:36:40.916Z,28.09
2022-10-05T13:37:45.315Z,26.80
2022-10-05T13:39:03.817Z,26.61
2022-10-05T13:40:19.671Z,25.76
2022-10-05T13:41:56.827Z,26.74
2022-10-05T13:43:06.236Z,26.58
2022-10-05T13:44:29.318Z,26.38
2022-10-05T13:46:05.320Z,27.14
2022-10-05T13:47:16.827Z,26.96
2022-10-05T13:48:40.037Z,26.41
2022-10-05T13:49:57.978Z,26.08
2022-10-05T13:51:06.125Z,26.03
2022-10-05T13:52:10.561Z,26.11
2022-10-05T13:53:23.936Z,25.71
2022-10-05T13:54:42.921Z,26.60
2022-10-05T13:55:49.552Z,25.63
2022-10-05T13:57:22.345Z,26.73
2022-10-05T13:58:51.489Z,26.98
2022-10-05T14:00:02.249Z,25.59
2022-10-05T14:01:14.443Z,26.01
2022-10-05T14:02:22.191Z,26.42
2022-10-05T14:03:36.045Z,25.34
2022-10-05T14:04:50.917Z,27.01
2022-10-05T14:05:58.219Z,26.84
2022-10-05T14:07:21.747Z,26.53
2022-10-05T14:08:28.882Z,27.08
2022-10-05T14:09:34.196Z,26.75
2022-10-05T14:10:38.461Z,26.28
2022-10-05T14:12:02.835Z,25.52
2022-10-05T14:13:33.767Z,25.53
2022-10-05T14:14:57.040Z,26.44
2022-10-05T14:16:28.263Z,26.77
2022-10-05T14:17:43.502Z,25.59
2022-10-05T14:18:55.889Z,25.65
2022-10-05T14:20:00.908Z,25.48
2022-10-05T14:21:08.422Z,26.84
2022-10-05T14:22:13.076Z,25.66
2022-10-05T14:23:24.567Z,26.06
2022-10-05T14:24:46.116Z,27.30
2022-10-05T14:25:54.010Z,26.62
2022-10-05T14:26:57.792Z,25.62
2022-10-05T14:28:02.953Z,25.28
2022-10-05T14:29:19.503Z,25.15
2022-10-05T14:30:24.159Z,24.69
2022-10-05T14:31:37.197Z,25.03
2022-10-05T14:32:59.293Z,25.00
2022-10-05T14:34:54.872Z,25.66
2022-10-05T14:35:58.639Z,25.93
2022-10-05T14:37:18.351Z,25.44
2022-10-05T14:38:53.459Z,25.25
2022-10-05T14:40:20.808Z,25.42
2022-10-05T14:41:28.024Z,26.35
2022-10-05T14:42:46.304Z,25.42
2022-10-05T14:44:15.443Z,24.76
2022-10-05T14:45:21.668Z,25.09
2022-10-05T14:46:28.789Z,25.33
2022-10-05T14:47:32.229Z,25.53
2022-10-05T14:48:44.820Z,25.52
2022-10-05T14:50:14.046Z,26.13
2022-10-05T14:51:31.971Z,25.59
2022-10-05T14:52:34.853Z,25.66
2022-10-05T14:53:43.401Z,25.20
2022-10-05T14:55:21.741Z,25.16
2022-10-05T14:56:58.234Z,26.24
2022-10-05T14:58:14.049Z,26.29
2022-10-05T14:59:46.049Z,26.88
2022-10-05T15:00:58.846Z,27.71
2022-10-05T15:02:18.540Z,26.73
2022-10-05T15:03:40.783Z,26.69
2022-10-05T15:05:01.839Z,27.18
2022-10-05T15:06:08.784Z,27.47
2022-10-05T15:07:30.920Z,28.22
2022-10-05T15:09:00.683Z,28.72
2022-10-05T15:10:37.117Z,28.67
2022-10-05T15:12:00.190Z,27.55
2022-10-05T15:13:44.719Z,28.15
2022-10-05T15:14:47.604Z,29.07
2022-10-05T15:15:59.193Z,27.32
2022-10-05T15:17:31.169Z,28.07
2022-10-05T15:19:16.129Z,28.88
2022-10-05T15:20:25.573Z,30.44
2022-10-05T15:21:30.163Z,30.81
2022-10-05T15:23:07.508Z,31.54
2022-10-05T15:24:17.423Z,33.27
2022-10-05T15:25:32.868Z,33.24
2022-10-05T15:26:37.387Z,33.58
2022-10-05T15:27:49.443Z,34.31
2022-10-05T15:29:07.377Z,34.80
2022-10-05T15:30:11.321Z,34.93
2022-10-05T15:32:04.542Z,34.94
2022-10-05T15:33:24.869Z,34.34
2022-10-05T15:34:58.127Z,34.90
2022-10-05T15:36:06.438Z,34.75
2022-10-05T15:37:20.268Z,34.24
2022-10-05T15:38:37.471Z,33.95
2022-10-05T15:39:48.325Z,34.82
2022-10-05T15:41:02.466Z,33.77
2022-10-05T15:42:11.349Z,34.49
2022-10-05T15:43:46.048Z,34.44
2022-10-05T15:45:23.545Z,34.09
2022-10-05T15:46:29.456Z,34.65
2022-10-05T15:47:56.628Z,35.72
2022-10-05T15:49:37.170Z,35.87
2022-10-05T15:50:56.400Z,35.64
2022-10-05T15:52:24.004Z,35.26
2022-10-05T15:53:36.114Z,36.69
2022-10-05T15:55:03.168Z,36.61
2022-10-05T15:56:27.898Z,37.02
2022-10-05T15:57:52.306Z,36.59
2022-10-05T15:59:18.936Z,37.23
2022-10-05T16:00:22.910Z,37.02
2022-10-05T16:01:35.557Z,37.02
2022-10-05T16:03:00.624Z,37.20
2022-10-05T16:04:15.387Z,37.99
2022-10-05T16:06:11.081Z,38.37
2022-10-05T16:07:59.585Z,38.66
2022-10-05T16:09:42.607Z,38.93
2022-10-05T16:10:45.626Z,38.38
2022-10-05T16:11:59.821Z,38.96
2022-10-05T16:13:14.168Z,38.50
2022-10-05T16:14:40.306Z,38.39
2022-10-05T16:16:17.171Z,39.24
2022-10-05T16:17:28.092Z,39.17
2022-10-05T16:18:47.306Z,39.64
2022-10-05T16:19:48.969Z,39.93
2022-10-05T16:20:57.145Z,39.94
2022-10-05T16:22:05.832Z,39.30
2022-10-05T16:23:18.094Z,40.01
2022-10-05T16:24:44.816Z,40.58
2022-10-05T16:26:01.664Z,40.07
2022-10-05T16:27:31.381Z,40.33
2022-10-05T16:28:50.742Z,40.08
2022-10-05T16:30:03.673Z,40.72
2022-10-05T16:31:06.217Z,40.40
2022-10-05T16:32:19.259Z,40.84
2022-10-05T16:33:45.931Z,40.91
2022-10-05T16:35:19.551Z,40.31
2022-10-05T16:36:48.299Z,40.41
2022-10-05T16:38:05.906Z,40.62
2022-10-05T16:39:14.759Z,41.11
2022-10-05T16:40:38.119Z,41.06
2022-10-05T16:42:12.808Z,40.86
2022-10-05T16:43:49.522Z,40.50
2022-10-05T16:45:06.917Z,40.62
2022-10-05T16:46:28.006Z,40.55
2022-10-05T16:47:39.063Z,40.67
2022-10-05T16:48:52.525Z,40.73
2022-10-05T16:50:06.198Z,41.18